createdAt,value
2022-12-15T00:01:41.322Z,-5.00
2022-12-15T00:04:26.646Z,-5.00
2022-12-15T00:07:12.529Z,-5.00
2022-12-15T00:09:58.123Z,-5.00
2022-12-15T00:12:43.529Z,-5.00
2022-12-15T00:15:29.244Z,-5.00
2022-12-15T00:18:14.457Z,-5.00
2022-12-15T00:20:59.882Z,-5.00
2022-12-15T00:23:45.450Z,-5.00
2022-12-15T00:26:30.885Z,-5.00
2022-12-15T00:29:16.284Z,-5.00
2022-12-15T00:32:01.838Z,-5.00
2022-12-15T00:34:47.156Z,-5.00
2022-12-15T00:37:32.660Z,-5.00
2022-12-15T00:39:59.315Z,-5.10
2022-12-15T00:42:28.609Z,-5.10
2022-12-15T00:44:56.211Z,-5.10
2022-12-15T00:47:23.504Z,-5.10
2022-12-15T00:50:09.454Z,-5.10
2022-12-15T00:52:55.241Z,-5.10
2022-12-15T00:55:40.579Z,-5.00
2022-12-15T00:58:26.082Z,-5.00
2022-12-15T01:01:11.557Z,-5.10
2022-12-15T01:03:57.049Z,-5.10
2022-12-15T01:06:42.579Z,-5.10
2022-12-15T01:09:30.629Z,-5.10
2022-12-15T01:12:16.083Z,-5.10
2022-12-15T01:15:01.608Z,-5.10
2022-12-15T01:17:47.008Z,-5.10
2022-12-15T01:20:19.792Z,-5.10
2022-12-15T01:22:48.718Z,-5.10
2022-12-15T01:25:17.273Z,-5.10
2022-12-15T01:27:44.742Z,-5.10
2022-12-15T01:30:13.652Z,-5.10
2022-12-15T01:32:45.704Z,-5.20
2022-12-15T01:35:13.266Z,-5.10
2022-12-15T01:37:40.161Z,-5.20
2022-12-15T01:40:27.193Z,-5.20
2022-12-15T01:42:54.046Z,-5.20
2022-12-15T01:45:29.673Z,-5.10
2022-12-15T01:47:58.040Z,-5.20
2022-12-15T01:50:26.064Z,-5.20
2022-12-15T01:52:54.909Z,-5.30
2022-12-15T01:55:24.526Z,-5.30
2022-12-15T01:57:54.032Z,-5.20
2022-12-15T02:00:20.705Z,-5.20
2022-12-15T02:02:47.925Z,-5.20
2022-12-15T02:05:14.769Z,-5.10
2022-12-15T02:07:42.668Z,-5.10
2022-12-15T02:10:10.691Z,-5.20
2022-12-15T02:13:01.978Z,-5.10
2022-12-15T02:15:41.516Z,-5.10
2022-12-15T02:18:10.837Z,-5.10
2022-12-15T02:20:47.087Z,-5.10
2022-12-15T02:24:02.137Z,-5.10
2022-12-15T02:26:59.419Z,-5.00
2022-12-15T02:30:15.489Z,-5.10
2022-12-15T02:32:49.785Z,-5.10
2022-12-15T02:35:38.660Z,-5.10
2022-12-15T02:38:05.322Z,-5.10
2022-12-15T02:40:32.139Z,-5.10
2022-12-15T02:43:01.680Z,-5.10
2022-12-15T02:45:40.988Z,-5.10
2022-12-15T02:48:34.975Z,-5.00
2022-12-15T02:51:09.693Z,-5.00
2022-12-15T02:54:05.402Z,-5.00
2022-12-15T02:56:55.071Z,-4.90
2022-12-15T02:59:33.238Z,-4.90
2022-12-15T03:02:05.932Z,-4.90
2022-12-15T03:04:35.562Z,-4.90
2022-12-15T03:07:09.513Z,-5.00
2022-12-15T03:09:36.634Z,-5.00
2022-12-15T03:12:03.537Z,-5.00
2022-12-15T03:14:30.198Z,-5.00
2022-12-15T03:16:56.994Z,-5.00
2022-12-15T03:19:24.170Z,-5.00
2022-12-15T03:21:50.759Z,-5.00
2022-12-15T03:24:17.428Z,-5.00
2022-12-15T03:26:44.173Z,-5.00
2022-12-15T03:29:10.848Z,-5.00
2022-12-15T03:31:37.596Z,-5.00
2022-12-15T03:34:04.290Z,-5.00
2022-12-15T03:36:30.920Z,-5.00
2022-12-15T03:38:57.552Z,-5.00
2022-12-15T03:41:24.168Z,-5.00
2022-12-15T03:43:50.817Z,-5.00
2022-12-15T03:46:17.533Z,-5.00
2022-12-15T03:48:44.217Z,-5.00
2022-12-15T03:51:10.847Z,-5.00
2022-12-15T03:53:37.476Z,-5.00
2022-12-15T03:56:04.142Z,-5.00
2022-12-15T03:58:30.790Z,-5.10
2022-12-15T04:00:57.542Z,-5.10
2022-12-15T04:03:24.349Z,-5.00
2022-12-15T04:05:51.225Z,-5.00
2022-12-15T04:08:17.916Z,-5.00
2022-12-15T04:10:44.615Z,-5.00
2022-12-15T04:13:11.937Z,-5.00
2022-12-15T04:15:40.317Z,-5.00
2022-12-15T04:18:12.522Z,-4.90
2022-12-15T04:20:40.302Z,-4.90
2022-12-15T04:23:07.898Z,-4.90
2022-12-15T04:25:54.373Z,-4.90
2022-12-15T04:28:40.608Z,-4.90
2022-12-15T04:31:35.862Z,-5.00
2022-12-15T04:34:23.768Z,-4.90
2022-12-15T04:37:12.197Z,-4.90
2022-12-15T04:40:01.026Z,-4.90
2022-12-15T04:42:48.603Z,-5.00
2022-12-15T04:45:37.575Z,-4.90
2022-12-15T04:48:23.236Z,-5.00
2022-12-15T04:51:08.751Z,-4.90
2022-12-15T04:53:54.117Z,-4.90
2022-12-15T04:56:39.565Z,-5.00
2022-12-15T04:59:24.944Z,-5.00
2022-12-15T05:02:10.708Z,-5.00
2022-12-15T05:04:56.172Z,-5.00
2022-12-15T05:07:43.935Z,-5.00
2022-12-15T05:10:29.284Z,-5.10
2022-12-15T05:13:14.559Z,-5.00
2022-12-15T05:16:00.064Z,-5.00
2022-12-15T05:18:45.364Z,-5.00
2022-12-15T05:21:30.686Z,-5.00
2022-12-15T05:24:16.171Z,-5.00
2022-12-15T05:27:01.676Z,-5.00
2022-12-15T05:29:47.195Z,-5.00
2022-12-15T05:32:13.856Z,-4.90
2022-12-15T05:34:40.529Z,-5.00
2022-12-15T05:37:07.386Z,-5.00
2022-12-15T05:39:34.650Z,-5.00
2022-12-15T05:42:01.332Z,-5.00
2022-12-15T05:44:29.314Z,-5.00
2022-12-15T05:46:56.357Z,-5.00
2022-12-15T05:49:23.385Z,-5.00
2022-12-15T05:51:50.145Z,-5.00
2022-12-15T05:54:19.422Z,-5.00
2022-12-15T05:56:47.049Z,-5.00
2022-12-15T05:59:17.247Z,-5.00
2022-12-15T06:01:43.909Z,-4.90
2022-12-15T06:04:12.887Z,-4.90
2022-12-15T06:06:40.284Z,-4.90
2022-12-15T06:09:07.155Z,-4.90
2022-12-15T06:11:33.873Z,-4.80
2022-12-15T06:14:00.512Z,-4.70
2022-12-15T06:16:30.396Z,-4.70
2022-12-15T06:19:00.213Z,-4.70
2022-12-15T06:21:30.566Z,-4.70
2022-12-15T06:23:57.733Z,-4.70
2022-12-15T06:26:27.960Z,-4.70
2022-12-15T06:28:56.516Z,-4.70
2022-12-15T06:31:25.387Z,-4.70
2022-12-15T06:33:59.307Z,-3.80
2022-12-15T06:36:28.816Z,-4.70
2022-12-15T06:38:59.204Z,-4.70
2022-12-15T06:41:26.443Z,-4.70
2022-12-15T06:43:55.796Z,-4.80
2022-12-15T06:46:23.480Z,-4.80
2022-12-15T06:48:50.732Z,-4.80
2022-12-15T06:51:17.976Z,-4.80
2022-12-15T06:53:48.973Z,-4.80
2022-12-15T06:56:28.661Z,-4.80
2022-12-15T06:58:59.583Z,-4.80
2022-12-15T07:01:26.974Z,-4.80
2022-12-15T07:03:54.693Z,-4.90
2022-12-15T07:06:21.631Z,-4.80
2022-12-15T07:08:54.267Z,-4.80
2022-12-15T07:11:22.178Z,-4.80
2022-12-15T07:13:52.797Z,-4.80
2022-12-15T07:16:21.044Z,-4.80
2022-12-15T07:18:47.727Z,-4.70
2022-12-15T07:21:14.404Z,-4.80
2022-12-15T07:23:57.609Z,-4.80
2022-12-15T07:26:25.533Z,-4.70
2022-12-15T07:28:53.960Z,-4.70
2022-12-15T07:31:21.737Z,-4.70
2022-12-15T07:33:48.779Z,-4.70
2022-12-15T07:36:15.636Z,-4.70
2022-12-15T07:38:42.597Z,-4.70
2022-12-15T07:41:10.201Z,-4.70
2022-12-15T07:43:37.693Z,-4.60
2022-12-15T07:46:05.925Z,-4.60
2022-12-15T07:48:33.509Z,-4.60
2022-12-15T07:51:11.121Z,-4.50
2022-12-15T07:53:42.136Z,-4.50
2022-12-15T07:56:10.052Z,-4.40
2022-12-15T07:58:37.935Z,-4.30
2022-12-15T08:01:07.219Z,-4.20
2022-12-15T08:03:35.578Z,-4.20
2022-12-15T08:06:11.320Z,-4.10
2022-12-15T08:08:38.865Z,-4.00
2022-12-15T08:11:10.961Z,-4.00
2022-12-15T08:16:26.299Z,-3.90
2022-12-15T08:18:53.767Z,-3.80
2022-12-15T08:21:20.411Z,-3.70
2022-12-15T08:23:47.778Z,-3.70
2022-12-15T08:26:16.835Z,-3.70
2022-12-15T08:28:44.578Z,-3.60
2022-12-15T08:31:17.471Z,-3.60
2022-12-15T08:33:45.685Z,-3.60
2022-12-15T08:36:16.099Z,-3.60
2022-12-15T08:38:43.971Z,-3.60
2022-12-15T08:41:17.619Z,-3.50
2022-12-15T08:43:48.527Z,-3.40
2022-12-15T08:46:17.680Z,-3.40
2022-12-15T08:48:44.958Z,-3.40
2022-12-15T08:51:11.983Z,-3.40
2022-12-15T08:53:39.124Z,-3.40
2022-12-15T08:56:12.072Z,-3.40
2022-12-15T08:58:39.565Z,-3.30
2022-12-15T09:01:09.600Z,-3.20
2022-12-15T09:03:37.263Z,-3.00
2022-12-15T09:06:11.337Z,-2.70
2022-12-15T09:08:38.045Z,-2.50
2022-12-15T09:11:07.349Z,-2.10
2022-12-15T09:13:35.107Z,-2.00
2022-12-15T09:16:10.506Z,-1.90
2022-12-15T09:18:37.629Z,-1.60
2022-12-15T09:21:06.519Z,-1.40
2022-12-15T09:23:34.854Z,-1.50
2022-12-15T09:26:06.898Z,-1.50
2022-12-15T09:28:33.579Z,-1.30
2022-12-15T09:31:09.511Z,-1.10
2022-12-15T09:33:37.481Z,-1.20
2022-12-15T09:36:04.738Z,-0.80
2022-12-15T09:38:34.110Z,-0.60
2022-12-15T09:41:14.198Z,-0.40
2022-12-15T09:44:03.054Z,-0.50
2022-12-15T09:46:57.439Z,-0.50
2022-12-15T09:49:29.793Z,-0.20
2022-12-15T09:52:08.812Z,-0.20
2022-12-15T09:54:38.061Z,0.00
2022-12-15T09:57:14.089Z,-0.30
2022-12-15T10:00:04.721Z,-0.40
2022-12-15T10:03:09.545Z,-0.20
2022-12-15T10:06:06.215Z,-0.10
2022-12-15T10:08:35.379Z,-0.20
2022-12-15T10:11:18.717Z,-0.20
2022-12-15T10:14:11.755Z,-0.20
2022-12-15T10:17:14.239Z,-0.40
2022-12-15T10:20:02.515Z,-0.30
2022-12-15T10:22:33.840Z,-0.30
2022-12-15T10:28:11.366Z,-0.30
2022-12-15T10:30:50.940Z,-0.40
2022-12-15T10:33:26.187Z,-0.60
2022-12-15T10:35:55.879Z,-0.70
2022-12-15T10:38:34.204Z,-0.70
2022-12-15T10:41:12.043Z,-0.80
2022-12-15T10:43:47.136Z,-0.80
2022-12-15T10:46:28.314Z,-0.80
2022-12-15T10:49:00.434Z,-0.80
2022-12-15T10:51:30.803Z,-0.80
2022-12-15T10:54:13.339Z,-0.80
2022-12-15T10:56:55.394Z,-0.80
2022-12-15T10:59:34.669Z,-0.70
2022-12-15T11:02:33.565Z,-0.20
2022-12-15T11:05:02.061Z,0.40
2022-12-15T11:07:37.816Z,0.90
2022-12-15T11:10:50.064Z,1.20
2022-12-15T11:13:19.377Z,1.20
2022-12-15T11:15:51.423Z,1.20
2022-12-15T11:18:51.191Z,1.20
2022-12-15T11:21:24.569Z,1.20
2022-12-15T11:24:12.160Z,1.00
2022-12-15T11:26:57.981Z,0.90
2022-12-15T11:29:50.110Z,0.80
2022-12-15T11:32:25.357Z,0.70
2022-12-15T11:34:52.648Z,0.70
2022-12-15T11:37:39.931Z,0.70
2022-12-15T11:40:25.204Z,0.80
2022-12-15T11:42:51.807Z,0.80
2022-12-15T11:45:35.259Z,0.70
2022-12-15T11:48:17.767Z,0.70
2022-12-15T11:51:08.598Z,0.70
2022-12-15T11:53:56.614Z,0.70
2022-12-15T11:56:38.104Z,0.70
2022-12-15T11:59:37.259Z,0.80
2022-12-15T12:02:13.526Z,0.80
2022-12-15T12:04:40.167Z,0.80
2022-12-15T12:07:38.460Z,0.70
2022-12-15T12:10:20.116Z,0.80
2022-12-15T12:13:15.636Z,0.70
2022-12-15T12:16:02.496Z,0.80
2022-12-15T12:18:36.547Z,0.80
2022-12-15T12:21:26.541Z,0.70
2022-12-15T12:23:53.430Z,0.70
2022-12-15T12:26:35.200Z,0.80
2022-12-15T12:29:20.171Z,0.80
2022-12-15T12:32:15.904Z,0.80
2022-12-15T12:35:32.829Z,0.70
2022-12-15T12:38:05.055Z,0.60
2022-12-15T12:40:53.869Z,0.50
2022-12-15T12:43:35.930Z,0.50
2022-12-15T12:46:27.027Z,0.50
2022-12-15T12:49:26.260Z,0.50
2022-12-15T12:51:59.523Z,0.50
2022-12-15T12:55:12.783Z,0.50
2022-12-15T12:57:42.640Z,0.50
2022-12-15T13:00:24.153Z,0.60
2022-12-15T13:03:11.304Z,0.60
2022-12-15T13:05:39.675Z,0.70
2022-12-15T13:08:06.355Z,0.80
2022-12-15T13:10:37.617Z,0.80
2022-12-15T13:13:29.601Z,0.90
2022-12-15T13:16:13.617Z,0.90
2022-12-15T13:18:55.540Z,0.90
2022-12-15T13:21:44.227Z,1.00
2022-12-15T13:24:31.045Z,1.00
2022-12-15T13:27:09.616Z,1.00
2022-12-15T13:29:53.508Z,1.00
2022-12-15T13:32:37.724Z,1.00
2022-12-15T13:35:13.423Z,1.10
2022-12-15T13:37:49.227Z,1.10
2022-12-15T13:40:33.857Z,1.00
2022-12-15T13:43:06.210Z,1.00
2022-12-15T13:45:38.488Z,0.90
2022-12-15T13:48:32.275Z,0.90
2022-12-15T13:51:17.746Z,0.90
2022-12-15T13:53:56.166Z,0.80
2022-12-15T13:56:31.622Z,0.80
2022-12-15T13:59:05.644Z,0.80
2022-12-15T14:01:33.710Z,0.80
2022-12-15T14:04:19.918Z,0.80
2022-12-15T14:06:55.716Z,0.80
2022-12-15T14:09:50.171Z,0.80
2022-12-15T14:12:17.380Z,0.80
2022-12-15T14:14:49.182Z,0.80
2022-12-15T14:17:18.458Z,0.70
2022-12-15T14:19:50.999Z,0.70
2022-12-15T14:22:30.394Z,0.70
2022-12-15T14:25:20.751Z,0.60
2022-12-15T14:27:50.657Z,0.60
2022-12-15T14:30:25.520Z,0.60
2022-12-15T14:33:07.022Z,0.60
2022-12-15T14:35:53.461Z,0.50
2022-12-15T14:38:34.160Z,0.50
2022-12-15T14:41:03.212Z,0.50
2022-12-15T14:43:36.954Z,0.50
2022-12-15T14:46:11.539Z,0.50
2022-12-15T14:48:42.977Z,0.40
2022-12-15T14:51:12.747Z,0.40
2022-12-15T14:53:42.063Z,0.40
2022-12-15T14:56:25.707Z,0.40
2022-12-15T14:59:04.031Z,0.40
2022-12-15T15:01:40.044Z,0.40
2022-12-15T15:03:04.401Z,-0.20
2022-12-15T15:04:32.602Z,0.30
2022-12-15T15:07:06.235Z,0.40
2022-12-15T15:09:41.305Z,0.30
2022-12-15T15:12:17.171Z,0.30
2022-12-15T15:15:05.875Z,0.20
2022-12-15T15:17:38.066Z,0.10
2022-12-15T15:20:15.331Z,0.10
2022-12-15T15:22:45.255Z,0.10
2022-12-15T15:25:27.572Z,0.00
2022-12-15T15:28:23.419Z,0.00
2022-12-15T15:30:56.360Z,0.00
2022-12-15T15:33:24.975Z,-0.10
2022-12-15T15:35:59.920Z,-0.10
2022-12-15T15:38:32.325Z,-0.20
2022-12-15T15:41:02.568Z,-0.20
2022-12-15T15:43:29.417Z,-0.30
2022-12-15T15:46:05.761Z,-0.30
2022-12-15T15:48:36.337Z,-0.40
2022-12-15T15:51:04.554Z,-0.40
2022-12-15T15:53:33.723Z,-0.40
2022-12-15T15:56:02.583Z,-0.40
2022-12-15T15:58:29.580Z,-0.40
2022-12-15T16:00:56.549Z,-0.50
2022-12-15T16:03:23.355Z,-0.50
2022-12-15T16:05:50.161Z,-0.50
2022-12-15T16:08:21.556Z,-0.60
2022-12-15T16:10:49.274Z,-0.60
2022-12-15T16:13:25.631Z,-0.60
2022-12-15T16:15:52.848Z,-0.50
2022-12-15T16:18:20.010Z,-0.60
2022-12-15T16:20:50.582Z,-0.60
2022-12-15T16:23:21.116Z,-0.60
2022-12-15T16:25:53.680Z,-0.70
2022-12-15T16:28:23.560Z,-0.70
2022-12-15T16:30:50.746Z,-0.80
2022-12-15T16:33:18.229Z,-0.80
2022-12-15T16:35:48.117Z,-0.80
2022-12-15T16:38:25.484Z,-0.80
2022-12-15T16:40:53.431Z,-0.90
2022-12-15T16:43:24.568Z,-0.90
2022-12-15T16:45:53.215Z,-0.90
2022-12-15T16:48:20.636Z,-1.00
2022-12-15T16:50:51.893Z,-1.00
2022-12-15T16:53:33.212Z,-0.50
2022-12-15T16:56:05.819Z,-1.00
2022-12-15T16:58:35.514Z,-1.10
2022-12-15T17:01:02.419Z,-1.00
2022-12-15T17:03:29.367Z,-1.10
2022-12-15T17:05:59.110Z,-1.10
2022-12-15T17:08:51.189Z,-1.10
2022-12-15T17:11:22.940Z,-1.10
2022-12-15T17:13:51.360Z,-1.10
2022-12-15T17:16:22.812Z,-1.10
2022-12-15T17:18:50.140Z,-1.10
2022-12-15T17:21:24.836Z,-1.10
2022-12-15T17:23:55.369Z,-1.10
2022-12-15T17:26:29.653Z,-1.10
2022-12-15T17:29:00.991Z,-1.10
2022-12-15T17:31:33.211Z,-1.10
2022-12-15T17:34:02.726Z,-1.10
2022-12-15T17:36:29.550Z,-1.20
2022-12-15T17:38:59.378Z,-1.20
2022-12-15T17:44:33.014Z,-1.20
2022-12-15T17:47:00.824Z,-1.30
2022-12-15T17:49:31.587Z,-1.30
2022-12-15T17:52:04.738Z,-1.30
2022-12-15T17:54:31.425Z,-1.30
2022-12-15T17:56:58.536Z,-1.30
2022-12-15T17:59:25.223Z,-1.30
2022-12-15T18:01:52.218Z,-1.30
2022-12-15T18:04:19.118Z,-1.30
2022-12-15T18:06:45.983Z,-1.30
2022-12-15T18:09:17.584Z,-1.30
2022-12-15T18:11:46.752Z,-1.30
2022-12-15T18:14:16.059Z,-1.20
2022-12-15T18:16:43.715Z,-1.20
2022-12-15T18:19:10.700Z,-1.10
2022-12-15T18:21:37.775Z,-1.00
2022-12-15T18:24:12.246Z,-1.00
2022-12-15T18:26:38.922Z,-0.90
2022-12-15T18:29:20.177Z,-0.90
2022-12-15T18:31:48.635Z,-0.90
2022-12-15T18:34:18.137Z,-0.80
2022-12-15T18:36:45.068Z,-0.80
2022-12-15T18:39:19.947Z,-0.80
2022-12-15T18:41:46.979Z,-0.80
2022-12-15T18:44:32.419Z,-0.80
2022-12-15T18:46:59.128Z,-0.80
2022-12-15T18:49:25.798Z,-0.60
2022-12-15T18:51:52.656Z,-0.70
2022-12-15T18:54:24.187Z,-0.60
2022-12-15T18:56:51.571Z,-0.70
2022-12-15T18:59:18.972Z,-0.60
2022-12-15T19:01:47.384Z,-0.70
2022-12-15T19:04:14.919Z,-0.70
2022-12-15T19:06:41.706Z,-0.60
2022-12-15T19:09:15.858Z,-0.60
2022-12-15T19:12:05.699Z,-0.60
2022-12-15T19:14:41.276Z,-0.60
2022-12-15T19:17:29.976Z,-0.60
2022-12-15T19:20:15.228Z,-0.70
2022-12-15T19:22:42.917Z,-0.70
2022-12-15T19:25:25.731Z,-0.60
2022-12-15T19:27:58.551Z,-0.60
2022-12-15T19:30:28.212Z,-0.60
2022-12-15T19:32:54.907Z,-0.60
2022-12-15T19:35:22.105Z,-0.60
2022-12-15T19:37:49.821Z,-0.70
2022-12-15T19:40:22.060Z,-0.70
2022-12-15T19:42:49.599Z,-0.70
2022-12-15T19:45:19.387Z,-0.70
2022-12-15T19:47:46.052Z,-0.70
2022-12-15T19:50:18.863Z,-0.70
2022-12-15T19:52:49.052Z,-0.80
2022-12-15T19:55:17.085Z,-0.80
2022-12-15T19:57:44.115Z,-0.80
2022-12-15T20:00:21.576Z,-0.90
2022-12-15T20:02:54.674Z,-0.90
2022-12-15T20:05:23.656Z,-0.90
2022-12-15T20:07:52.999Z,-0.80
2022-12-15T20:10:29.326Z,-0.90
2022-12-15T20:12:58.534Z,-0.90
2022-12-15T20:15:26.537Z,-0.90
2022-12-15T20:17:57.209Z,-0.80
2022-12-15T20:20:26.757Z,-1.00
2022-12-15T20:22:58.734Z,-1.00
2022-12-15T20:25:32.220Z,-1.00
2022-12-15T20:28:02.221Z,-1.00
2022-12-15T20:30:32.650Z,-1.00
2022-12-15T20:33:00.928Z,-1.10
2022-12-15T20:35:28.694Z,-1.10
2022-12-15T20:37:55.377Z,-1.00
2022-12-15T20:40:28.255Z,-1.00
2022-12-15T20:42:55.508Z,-1.10
2022-12-15T20:45:25.387Z,-1.10
2022-12-15T20:47:54.760Z,-1.10
2022-12-15T20:50:35.306Z,-1.10
2022-12-15T20:53:02.515Z,-1.10
2022-12-15T20:55:29.903Z,-1.20
2022-12-15T20:57:56.568Z,-1.20
2022-12-15T21:00:23.292Z,-1.20
2022-12-15T21:02:51.843Z,-1.20
2022-12-15T21:05:22.296Z,-1.20
2022-12-15T21:07:49.666Z,-1.20
2022-12-15T21:10:18.750Z,-1.20
2022-12-15T21:12:48.515Z,-1.20
2022-12-15T21:15:22.399Z,-1.20
2022-12-15T21:18:11.101Z,-1.20
2022-12-15T21:20:41.013Z,-1.20
2022-12-15T21:23:21.512Z,-1.20
2022-12-15T21:25:49.806Z,-1.30
2022-12-15T21:28:17.573Z,-1.20
2022-12-15T21:30:44.442Z,-1.30
2022-12-15T21:33:11.154Z,-1.20
2022-12-15T21:35:39.837Z,-1.20
2022-12-15T21:38:15.421Z,-1.20
2022-12-15T21:40:42.319Z,-1.10
2022-12-15T21:43:10.723Z,-1.10
2022-12-15T21:45:37.444Z,-1.00
2022-12-15T21:48:22.838Z,-1.00
2022-12-15T21:50:49.677Z,-1.00
2022-12-15T21:53:18.368Z,-1.00
2022-12-15T21:55:47.094Z,-1.00
2022-12-15T21:58:24.044Z,-1.00
2022-12-15T22:00:51.114Z,-1.00
2022-12-15T22:03:18.189Z,-1.00
2022-12-15T22:05:45.050Z,-1.00
2022-12-15T22:08:17.837Z,-1.00
2022-12-15T22:10:46.829Z,-0.90
2022-12-15T22:13:19.074Z,-1.00
2022-12-15T22:15:46.870Z,-1.00
2022-12-15T22:18:19.529Z,-0.90
2022-12-15T22:20:50.734Z,-1.00
2022-12-15T22:23:18.497Z,-1.00
2022-12-15T22:25:55.300Z,-0.90
2022-12-15T22:28:24.629Z,-0.90
2022-12-15T22:30:52.800Z,-1.00
2022-12-15T22:33:23.843Z,-1.00
2022-12-15T22:35:52.377Z,-1.00
2022-12-15T22:38:23.163Z,-1.00
2022-12-15T22:40:53.583Z,-1.00
2022-12-15T22:43:41.390Z,-1.00
2022-12-15T22:46:12.473Z,-1.00
2022-12-15T22:48:42.368Z,-1.00
2022-12-15T22:51:13.024Z,-1.00
2022-12-15T22:53:39.930Z,-1.00
2022-12-15T22:56:21.495Z,-1.00
2022-12-15T22:58:54.544Z,-1.00
2022-12-15T23:01:21.559Z,-0.90
2022-12-15T23:03:48.215Z,-0.90
2022-12-15T23:06:14.947Z,-0.90
2022-12-15T23:08:41.620Z,-0.80
2022-12-15T23:11:26.896Z,-0.80
2022-12-15T23:13:53.633Z,-0.80
2022-12-15T23:16:22.185Z,-1.00
2022-12-15T23:18:51.670Z,-0.80
2022-12-15T23:21:19.352Z,-0.80
2022-12-15T23:23:46.256Z,-0.80
2022-12-15T23:26:13.723Z,-0.80
2022-12-15T23:28:40.703Z,-0.80
2022-12-15T23:31:08.742Z,-0.80
2022-12-15T23:33:35.825Z,-0.80
2022-12-15T23:36:02.780Z,-0.80
2022-12-15T23:38:29.640Z,-0.70
2022-12-15T23:40:57.362Z,-0.70
2022-12-15T23:43:26.412Z,-0.80
2022-12-15T23:46:05.444Z,-0.80
2022-12-15T23:48:37.307Z,-0.70
2022-12-15T23:51:06.230Z,-0.80
2022-12-15T23:53:33.965Z,-0.80
2022-12-15T23:56:12.772Z,-0.80
2022-12-15T23:58:40.467Z,-0.80
